Time;durP1;ratioP1;P1;durP2;ratioP2;P2;SDS_P1;SDS_P2;PMS_P1;PMS_P2;Temp;Humidity;BMP_temperature;BMP_pressure;BME280_temperature;BME280_humidity;BME280_pressure;Samples;Min_cycle;Max_cycle;Signal;HPM_P1;HPM_P2
2022/07/10 00:02:15;;;;;;;15.77;11.77;;;;;;;;;;5026428;28;20035;-70
2022/07/10 00:04:41;;;;;;;15.48;11.82;;;;;;;;;;5026489;28;20401;-72
2022/07/10 00:07:06;;;;;;;12.73;11.48;;;;;;;;;;5029533;28;20032;-68
2022/07/10 00:09:31;;;;;;;14.40;12.90;;;;;;;;;;5039684;28;20041;-65
2022/07/10 00:11:57;;;;;;;16.52;12.55;;;;;;;;;;5039779;28;20355;-67
2022/07/10 00:14:22;;;;;;;13.85;12.55;;;;;;;;;;5039677;28;20441;-65
2022/07/10 00:16:48;;;;;;;13.68;12.38;;;;;;;;;;5038945;28;20379;-66
2022/07/10 00:19:13;;;;;;;13.18;12.07;;;;;;;;;;5027677;28;20379;-65
2022/07/10 00:21:38;;;;;;;16.90;11.80;;;;;;;;;;5039390;28;20028;-65
2022/07/10 00:24:04;;;;;;;12.70;11.65;;;;;;;;;;5039745;28;20455;-65
2022/07/10 00:26:30;;;;;;;12.63;11.23;;;;;;;;;;5032586;28;20040;-65
2022/07/10 00:28:55;;;;;;;11.73;10.73;;;;;;;;;;5038148;28;20063;-66
2022/07/10 00:31:21;;;;;;;11.70;10.60;;;;;;;;;;5043326;28;20040;-68
2022/07/10 00:33:47;;;;;;;11.52;10.43;;;;;;;;;;5038922;28;20017;-67
2022/07/10 00:36:13;;;;;;;12.05;11.07;;;;;;;;;;5035457;28;20128;-65
2022/07/10 00:38:38;;;;;;;12.45;11.15;;;;;;;;;;5041984;28;20112;-65
2022/07/10 00:41:03;;;;;;;14.35;11.00;;;;;;;;;;5039623;28;20112;-65
2022/07/10 00:43:29;;;;;;;12.88;10.55;;;;;;;;;;5042901;28;20116;-66
2022/07/10 00:45:54;;;;;;;12.30;11.10;;;;;;;;;;5033955;28;20029;-65
2022/07/10 00:48:19;;;;;;;12.63;11.50;;;;;;;;;;5035615;28;20029;-66
2022/07/10 00:50:45;;;;;;;12.13;11.13;;;;;;;;;;5030764;28;20219;-68
2022/07/10 00:53:12;;;;;;;12.88;11.85;;;;;;;;;;5032159;28;20064;-65
2022/07/10 00:55:38;;;;;;;16.58;12.95;;;;;;;;;;5042795;28;20025;-66
2022/07/10 00:58:06;;;;;;;15.32;13.93;;;;;;;;;;5042803;28;20025;-65
2022/07/10 01:00:32;;;;;;;13.27;11.90;;;;;;;;;;5042183;28;20429;-66
2022/07/10 01:02:57;;;;;;;12.75;11.43;;;;;;;;;;5042849;28;20041;-66
2022/07/10 01:05:23;;;;;;;12.07;10.98;;;;;;;;;;5037601;28;20386;-66
2022/07/10 01:07:48;;;;;;;11.80;10.65;;;;;;;;;;5029758;28;20029;-65
2022/07/10 01:10:13;;;;;;;13.18;11.88;;;;;;;;;;5040110;28;20044;-67
2022/07/10 01:12:39;;;;;;;13.20;12.00;;;;;;;;;;5041714;28;20121;-69
2022/07/10 01:15:05;;;;;;;13.40;12.07;;;;;;;;;;5039153;28;20111;-68
2022/07/10 01:17:30;;;;;;;13.73;12.52;;;;;;;;;;5034730;28;20040;-66
2022/07/10 01:19:55;;;;;;;13.20;12.02;;;;;;;;;;5041518;28;20035;-71
2022/07/10 01:22:21;;;;;;;13.15;11.98;;;;;;;;;;5033879;28;20033;-68
2022/07/10 01:24:46;;;;;;;14.60;12.88;;;;;;;;;;5031089;28;20029;-68
2022/07/10 01:27:12;;;;;;;14.20;13.00;;;;;;;;;;5030799;28;20021;-66
2022/07/10 01:29:37;;;;;;;14.05;12.75;;;;;;;;;;5026280;28;20029;-68
2022/07/10 01:32:03;;;;;;;15.00;12.80;;;;;;;;;;5031554;28;20499;-65
2022/07/10 01:34:28;;;;;;;15.75;12.32;;;;;;;;;;5041486;28;20355;-67
2022/07/10 01:36:53;;;;;;;12.20;11.10;;;;;;;;;;5042408;28;20033;-66
2022/07/10 01:39:19;;;;;;;14.25;12.23;;;;;;;;;;5040363;28;20040;-69
2022/07/10 01:41:44;;;;;;;12.35;11.27;;;;;;;;;;5042198;28;20033;-67
2022/07/10 01:44:09;;;;;;;12.57;11.45;;;;;;;;;;5031696;28;20032;-70
2022/07/10 01:46:35;;;;;;;12.65;11.40;;;;;;;;;;5030095;28;20036;-68
2022/07/10 01:49:00;;;;;;;12.48;11.32;;;;;;;;;;5041301;28;20036;-66
2022/07/10 01:51:25;;;;;;;13.60;12.18;;;;;;;;;;5036925;28;20037;-66
2022/07/10 01:53:51;;;;;;;13.85;12.40;;;;;;;;;;5036224;28;20100;-66
2022/07/10 01:56:17;;;;;;;13.60;12.48;;;;;;;;;;5041923;28;20025;-66
2022/07/10 01:58:42;;;;;;;13.00;11.80;;;;;;;;;;5041848;28;20025;-67
2022/07/10 02:01:08;;;;;;;13.68;12.50;;;;;;;;;;5033164;28;20036;-71
2022/07/10 02:06:17;;;;;;;12.80;11.52;;;;;;;;;;5040908;28;20498;-67
2022/07/10 02:08:43;;;;;;;12.40;11.30;;;;;;;;;;5039286;28;20037;-66
2022/07/10 02:11:08;;;;;;;12.05;10.98;;;;;;;;;;5041164;28;20501;-66
2022/07/10 02:13:34;;;;;;;11.80;10.80;;;;;;;;;;5039607;28;20021;-66
2022/07/10 02:15:59;;;;;;;15.98;10.18;;;;;;;;;;5029759;28;20395;-65
2022/07/10 02:18:25;;;;;;;13.10;10.55;;;;;;;;;;5036663;28;20047;-70
2022/07/10 02:20:51;;;;;;;13.98;10.75;;;;;;;;;;5041125;28;20132;-70
2022/07/10 02:23:16;;;;;;;12.55;11.07;;;;;;;;;;5041825;28;20036;-66
2022/07/10 02:25:43;;;;;;;11.43;10.32;;;;;;;;;;5041611;28;20028;-68
2022/07/10 02:28:08;;;;;;;11.80;10.77;;;;;;;;;;5040718;28;20749;-66
2022/07/10 02:30:33;;;;;;;11.35;10.20;;;;;;;;;;5041144;28;20056;-66
2022/07/10 02:32:59;;;;;;;13.00;10.40;;;;;;;;;;5041012;28;20033;-66
2022/07/10 02:35:24;;;;;;;11.93;10.43;;;;;;;;;;5032436;28;20042;-66
2022/07/10 02:37:50;;;;;;;10.70;9.80;;;;;;;;;;5038178;28;20482;-69
2022/07/10 02:40:15;;;;;;;11.70;10.48;;;;;;;;;;5027329;28;20152;-68
2022/07/10 02:42:40;;;;;;;10.82;9.80;;;;;;;;;;5040491;28;20029;-66
2022/07/10 02:45:06;;;;;;;11.95;10.27;;;;;;;;;;5030163;28;20348;-69
2022/07/10 02:47:32;;;;;;;10.95;9.88;;;;;;;;;;5031166;28;20021;-66
2022/07/10 02:49:57;;;;;;;12.05;10.95;;;;;;;;;;5040390;28;20110;-67
2022/07/10 02:52:22;;;;;;;11.95;10.48;;;;;;;;;;5030296;28;20116;-67
2022/07/10 02:54:48;;;;;;;10.63;9.63;;;;;;;;;;5037575;28;20032;-67
2022/07/10 02:57:13;;;;;;;11.27;10.00;;;;;;;;;;5032875;28;20115;-66
2022/07/10 02:59:38;;;;;;;10.93;10.07;;;;;;;;;;5040923;28;20036;-71
2022/07/10 03:02:04;;;;;;;10.10;9.30;;;;;;;;;;5041076;28;20037;-67
2022/07/10 03:04:29;;;;;;;12.70;10.18;;;;;;;;;;5040486;28;20075;-69
2022/07/10 03:06:55;;;;;;;11.40;10.23;;;;;;;;;;5032526;28;20029;-68
2022/07/10 03:09:20;;;;;;;10.57;9.52;;;;;;;;;;5037147;28;20048;-66
2022/07/10 03:11:45;;;;;;;11.25;10.20;;;;;;;;;;5039914;28;20052;-66
2022/07/10 03:14:11;;;;;;;10.80;9.55;;;;;;;;;;5040277;28;20025;-66
2022/07/10 03:16:36;;;;;;;11.75;9.52;;;;;;;;;;5040855;28;20032;-66
2022/07/10 03:19:02;;;;;;;11.85;10.30;;;;;;;;;;5031525;28;20452;-67
2022/07/10 03:21:27;;;;;;;10.98;9.02;;;;;;;;;;5030246;28;20021;-71
2022/07/10 03:23:53;;;;;;;9.20;8.40;;;;;;;;;;5034459;28;20032;-70
2022/07/10 03:26:18;;;;;;;12.52;11.27;;;;;;;;;;5036481;28;20357;-70
2022/07/10 03:28:43;;;;;;;11.82;10.50;;;;;;;;;;5034138;28;20075;-66
2022/07/10 03:31:09;;;;;;;11.40;10.30;;;;;;;;;;5039693;28;20037;-70
2022/07/10 03:33:34;;;;;;;10.70;9.45;;;;;;;;;;5040094;28;20033;-66
2022/07/10 03:36:01;;;;;;;10.57;8.77;;;;;;;;;;5039768;28;20033;-68
2022/07/10 03:38:26;;;;;;;9.23;8.43;;;;;;;;;;5030558;28;20360;-66
2022/07/10 03:40:52;;;;;;;8.88;8.18;;;;;;;;;;5033819;28;20028;-65
2022/07/10 03:43:17;;;;;;;10.55;8.98;;;;;;;;;;5033834;28;20056;-70
2022/07/10 03:45:42;;;;;;;10.18;8.80;;;;;;;;;;5027011;28;20013;-71
2022/07/10 03:48:08;;;;;;;9.82;8.93;;;;;;;;;;5030476;28;20690;-68
2022/07/10 03:50:33;;;;;;;9.38;8.57;;;;;;;;;;5040300;28;20467;-66
2022/07/10 03:52:59;;;;;;;9.25;8.38;;;;;;;;;;5038933;28;20088;-69
2022/07/10 03:55:24;;;;;;;9.65;8.75;;;;;;;;;;5031709;28;20112;-69
2022/07/10 03:58:02;;;;;;;9.60;8.70;;;;;;;;;;5037413;28;20037;-67
2022/07/10 04:00:28;;;;;;;9.55;8.45;;;;;;;;;;5029135;28;20119;-66
2022/07/10 04:02:55;;;;;;;13.68;8.65;;;;;;;;;;5038395;28;20128;-66
2022/07/10 04:05:20;;;;;;;9.10;8.30;;;;;;;;;;5037028;28;20090;-66
2022/07/10 04:07:45;;;;;;;10.50;9.10;;;;;;;;;;5030837;28;20021;-70
2022/07/10 04:10:11;;;;;;;9.45;8.60;;;;;;;;;;5038925;28;20048;-67
2022/07/10 04:12:36;;;;;;;11.57;9.23;;;;;;;;;;5029405;28;20029;-69
2022/07/10 04:15:01;;;;;;;16.02;9.00;;;;;;;;;;5028894;28;20040;-68
2022/07/10 04:17:27;;;;;;;10.52;8.80;;;;;;;;;;5039534;28;20100;-66
2022/07/10 04:19:52;;;;;;;9.68;8.65;;;;;;;;;;5038808;28;20024;-66
2022/07/10 04:22:18;;;;;;;9.07;7.57;;;;;;;;;;5039519;28;20091;-69
2022/07/10 04:24:43;;;;;;;8.65;7.85;;;;;;;;;;5039660;28;20025;-68
2022/07/10 04:27:08;;;;;;;8.13;7.35;;;;;;;;;;5039297;28;20029;-66
2022/07/10 04:29:33;;;;;;;8.20;7.22;;;;;;;;;;5032079;28;20078;-69
2022/07/10 04:31:59;;;;;;;12.60;8.23;;;;;;;;;;5033487;28;20036;-69
2022/07/10 04:34:24;;;;;;;7.82;7.13;;;;;;;;;;5039096;28;20029;-66
2022/07/10 04:36:50;;;;;;;8.43;7.20;;;;;;;;;;5039367;28;20037;-67
2022/07/10 04:39:15;;;;;;;9.45;7.25;;;;;;;;;;5039302;28;20076;-66
2022/07/10 04:41:40;;;;;;;8.02;7.13;;;;;;;;;;5032435;28;20045;-66
2022/07/10 04:44:06;;;;;;;8.32;6.80;;;;;;;;;;5035606;28;20019;-66
2022/07/10 04:46:31;;;;;;;7.68;7.07;;;;;;;;;;5035624;28;20024;-65
2022/07/10 04:48:56;;;;;;;8.10;6.80;;;;;;;;;;5030727;28;20040;-69
2022/07/10 04:51:23;;;;;;;7.05;6.45;;;;;;;;;;5038236;28;20403;-68
2022/07/10 04:53:48;;;;;;;7.32;6.63;;;;;;;;;;5039725;28;20108;-68
2022/07/10 04:56:14;;;;;;;9.05;6.97;;;;;;;;;;5037775;28;21310;-67
2022/07/10 04:58:39;;;;;;;10.50;7.40;;;;;;;;;;5037965;28;20522;-64
2022/07/10 05:01:04;;;;;;;7.57;6.97;;;;;;;;;;5039346;28;20028;-68
2022/07/10 05:03:30;;;;;;;11.60;7.25;;;;;;;;;;5038758;28;20029;-67
2022/07/10 05:05:55;;;;;;;7.53;6.78;;;;;;;;;;5030040;28;20024;-69
2022/07/10 05:08:20;;;;;;;8.27;7.47;;;;;;;;;;5036492;28;20060;-67
2022/07/10 05:10:46;;;;;;;9.82;7.47;;;;;;;;;;5038998;28;20514;-70
2022/07/10 05:13:12;;;;;;;10.68;7.20;;;;;;;;;;5031407;28;20021;-68
2022/07/10 05:15:37;;;;;;;8.90;7.22;;;;;;;;;;5024241;28;20021;-69
2022/07/10 05:18:03;;;;;;;8.15;7.25;;;;;;;;;;5038737;28;20410;-67
2022/07/10 05:20:28;;;;;;;8.07;7.32;;;;;;;;;;5042403;28;20040;-67
2022/07/10 05:22:54;;;;;;;16.70;7.80;;;;;;;;;;5042018;28;20079;-67
2022/07/10 05:25:19;;;;;;;8.05;7.20;;;;;;;;;;5042838;28;20025;-66
2022/07/10 05:27:44;;;;;;;7.97;6.95;;;;;;;;;;5042354;28;20368;-67
2022/07/10 05:30:10;;;;;;;7.57;6.82;;;;;;;;;;5041616;28;20059;-68
2022/07/10 05:32:42;;;;;;;11.43;6.90;;;;;;;;;;5042718;28;20033;-67
2022/07/10 05:35:07;;;;;;;8.43;7.10;;;;;;;;;;5030751;28;20040;-67
2022/07/10 05:37:33;;;;;;;6.70;6.10;;;;;;;;;;5041716;28;20032;-67
2022/07/10 05:39:58;;;;;;;7.68;6.18;;;;;;;;;;5043094;28;20052;-67
2022/07/10 05:42:23;;;;;;;7.47;6.40;;;;;;;;;;5041431;28;20021;-66
2022/07/10 05:44:49;;;;;;;6.72;6.22;;;;;;;;;;5036682;28;20040;-70
2022/07/10 05:47:14;;;;;;;8.40;5.97;;;;;;;;;;5034968;28;20073;-67
2022/07/10 05:49:39;;;;;;;8.57;5.10;;;;;;;;;;5033107;28;20068;-69
2022/07/10 05:52:05;;;;;;;6.20;4.97;;;;;;;;;;5028094;28;20088;-67
2022/07/10 05:54:30;;;;;;;5.78;5.15;;;;;;;;;;5030727;28;20468;-67
2022/07/10 05:56:56;;;;;;;6.03;5.30;;;;;;;;;;5027991;28;20037;-69
2022/07/10 05:59:21;;;;;;;6.13;5.20;;;;;;;;;;5031117;28;20440;-71
2022/07/10 06:01:47;;;;;;;7.45;5.32;;;;;;;;;;5031567;28;20860;-69
2022/07/10 06:04:12;;;;;;;6.45;4.97;;;;;;;;;;5041781;28;20098;-69
2022/07/10 06:06:37;;;;;;;6.50;5.10;;;;;;;;;;5034229;28;20083;-66
2022/07/10 06:09:03;;;;;;;8.68;5.18;;;;;;;;;;5037475;28;20998;-70
2022/07/10 06:11:28;;;;;;;5.57;4.97;;;;;;;;;;5039248;28;20430;-68
2022/07/10 06:13:53;;;;;;;5.88;4.80;;;;;;;;;;5031178;28;20033;-67
2022/07/10 06:16:19;;;;;;;4.82;4.38;;;;;;;;;;5036070;28;20036;-66
2022/07/10 06:18:44;;;;;;;7.03;4.40;;;;;;;;;;5040833;28;20119;-68
2022/07/10 06:21:09;;;;;;;7.35;4.93;;;;;;;;;;5041065;28;20069;-68
2022/07/10 06:23:35;;;;;;;5.60;5.10;;;;;;;;;;5041057;28;20111;-68
2022/07/10 06:26:00;;;;;;;5.63;4.60;;;;;;;;;;5041517;28;20041;-67
2022/07/10 06:28:25;;;;;;;5.07;4.57;;;;;;;;;;5033854;28;20037;-73
2022/07/10 06:30:51;;;;;;;5.22;4.68;;;;;;;;;;5037063;28;20076;-67
2022/07/10 06:33:16;;;;;;;5.35;4.43;;;;;;;;;;5035580;28;20036;-68
2022/07/10 06:35:42;;;;;;;5.43;4.13;;;;;;;;;;5031217;28;20036;-68
2022/07/10 06:38:08;;;;;;;4.85;4.45;;;;;;;;;;5031295;28;20021;-68
2022/07/10 06:40:37;;;;;;;6.15;4.35;;;;;;;;;;5039504;28;20499;-68
2022/07/10 06:43:02;;;;;;;4.60;4.05;;;;;;;;;;5029695;28;20025;-68
2022/07/10 06:45:28;;;;;;;5.13;3.65;;;;;;;;;;5031854;28;20393;-67
2022/07/10 06:47:57;;;;;;;4.53;3.75;;;;;;;;;;5032210;28;20132;-66
2022/07/10 06:50:23;;;;;;;3.53;3.20;;;;;;;;;;5048957;28;20352;-69
2022/07/10 06:52:49;;;;;;;3.40;3.10;;;;;;;;;;5056532;28;20352;-71
2022/07/10 06:55:15;;;;;;;7.28;3.33;;;;;;;;;;5074104;28;20427;-68
2022/07/10 06:57:40;;;;;;;6.15;3.80;;;;;;;;;;5074306;28;20021;-68
2022/07/10 07:00:06;;;;;;;3.58;3.38;;;;;;;;;;5074221;28;20020;-68
2022/07/10 07:02:31;;;;;;;4.22;3.45;;;;;;;;;;5070692;28;20394;-69
2022/07/10 07:04:57;;;;;;;4.15;3.75;;;;;;;;;;5063035;28;20021;-68
2022/07/10 07:07:22;;;;;;;10.10;3.30;;;;;;;;;;5058960;28;20108;-71
2022/07/10 07:09:50;;;;;;;4.72;3.42;;;;;;;;;;5033257;28;20068;-68
2022/07/10 07:12:16;;;;;;;6.25;3.70;;;;;;;;;;5035346;28;20251;-67
2022/07/10 07:14:41;;;;;;;4.32;3.90;;;;;;;;;;5030173;28;20107;-68
2022/07/10 07:17:09;;;;;;;4.68;3.42;;;;;;;;;;5039065;28;20040;-70
2022/07/10 07:25:03;;;;;;;6.07;3.35;;;;;;;;;;5032119;28;20066;-68
2022/07/10 07:27:28;;;;;;;4.93;3.75;;;;;;;;;;5028704;28;20387;-67
2022/07/10 07:29:54;;;;;;;4.25;3.20;;;;;;;;;;5027664;28;20037;-66
2022/07/10 07:32:19;;;;;;;3.60;3.30;;;;;;;;;;5038991;28;20598;-67
2022/07/10 07:34:44;;;;;;;3.58;3.20;;;;;;;;;;5030452;28;20033;-67
2022/07/10 07:37:10;;;;;;;4.00;3.55;;;;;;;;;;5029546;28;20021;-66
2022/07/10 07:39:36;;;;;;;5.43;3.35;;;;;;;;;;5039000;28;20106;-68
2022/07/10 07:42:02;;;;;;;3.47;2.60;;;;;;;;;;5031214;28;20123;-68
2022/07/10 07:44:27;;;;;;;2.25;1.98;;;;;;;;;;5039442;28;20112;-68
2022/07/10 07:46:52;;;;;;;2.83;2.42;;;;;;;;;;5036861;28;20024;-70
2022/07/10 07:49:18;;;;;;;3.08;2.22;;;;;;;;;;5025881;28;20028;-71
2022/07/10 07:51:43;;;;;;;2.63;1.90;;;;;;;;;;5031630;28;20490;-69
2022/07/10 07:54:08;;;;;;;2.25;2.05;;;;;;;;;;5031336;28;20036;-68
2022/07/10 07:56:34;;;;;;;3.22;1.90;;;;;;;;;;5037977;28;20056;-68
2022/07/10 07:58:59;;;;;;;2.58;2.00;;;;;;;;;;5039059;28;20163;-69
2022/07/10 08:01:24;;;;;;;2.70;1.83;;;;;;;;;;5040025;28;20017;-70
2022/07/10 08:03:50;;;;;;;2.20;1.98;;;;;;;;;;5040095;28;20020;-68
2022/07/10 08:06:15;;;;;;;2.22;2.00;;;;;;;;;;5038768;28;20454;-69
2022/07/10 08:08:40;;;;;;;4.55;2.05;;;;;;;;;;5039254;28;20405;-69
2022/07/10 08:11:06;;;;;;;2.42;1.83;;;;;;;;;;5035850;28;20033;-72
2022/07/10 08:13:33;;;;;;;2.95;2.03;;;;;;;;;;5031433;28;20025;-68
2022/07/10 08:15:59;;;;;;;3.85;1.95;;;;;;;;;;5038884;28;20389;-70
2022/07/10 08:18:24;;;;;;;6.53;2.13;;;;;;;;;;5027128;28;20075;-69
2022/07/10 08:20:50;;;;;;;2.70;2.15;;;;;;;;;;5029437;28;20028;-70
2022/07/10 08:23:15;;;;;;;2.08;1.88;;;;;;;;;;5040088;28;20056;-66
2022/07/10 08:25:41;;;;;;;3.67;1.80;;;;;;;;;;5035539;28;20074;-68
2022/07/10 08:28:06;;;;;;;2.25;1.80;;;;;;;;;;5028668;28;20021;-72
2022/07/10 08:30:31;;;;;;;5.90;2.22;;;;;;;;;;5026055;28;20063;-70
2022/07/10 08:32:57;;;;;;;3.88;2.13;;;;;;;;;;5026564;28;20033;-70
2022/07/10 08:35:22;;;;;;;2.40;1.90;;;;;;;;;;5025764;28;20590;-70
2022/07/10 08:37:47;;;;;;;2.03;1.70;;;;;;;;;;5028903;28;20032;-67
2022/07/10 08:40:14;;;;;;;2.13;1.70;;;;;;;;;;5030284;28;20043;-68
2022/07/10 08:42:40;;;;;;;3.67;1.70;;;;;;;;;;5020309;28;20123;-67
2022/07/10 08:45:06;;;;;;;1.95;1.70;;;;;;;;;;5019715;28;20037;-72
2022/07/10 08:47:34;;;;;;;3.22;1.60;;;;;;;;;;5029857;28;20029;-71
2022/07/10 08:49:59;;;;;;;2.83;2.00;;;;;;;;;;5032499;28;20032;-70
2022/07/10 08:52:24;;;;;;;3.65;1.70;;;;;;;;;;5030886;28;20067;-70
2022/07/10 08:54:50;;;;;;;3.00;1.65;;;;;;;;;;5030589;28;20040;-69
2022/07/10 08:57:15;;;;;;;1.90;1.80;;;;;;;;;;5031654;28;20115;-70
2022/07/10 08:59:41;;;;;;;2.58;2.10;;;;;;;;;;5031171;28;20044;-72
2022/07/10 09:02:06;;;;;;;2.00;1.70;;;;;;;;;;5034308;28;20029;-70
2022/07/10 09:04:31;;;;;;;2.85;1.90;;;;;;;;;;5040603;28;20025;-68
2022/07/10 09:06:57;;;;;;;3.22;1.70;;;;;;;;;;5044162;28;20035;-70
2022/07/10 09:09:24;;;;;;;2.50;1.70;;;;;;;;;;5042999;28;20108;-68
2022/07/10 09:11:54;;;;;;;3.83;1.85;;;;;;;;;;5042602;28;20033;-69
2022/07/10 09:14:23;;;;;;;2.20;1.80;;;;;;;;;;5030817;28;20115;-69
2022/07/10 09:16:50;;;;;;;2.15;1.40;;;;;;;;;;5026147;28;21066;-69
2022/07/10 09:19:18;;;;;;;2.67;1.65;;;;;;;;;;5028345;28;20048;-69
2022/07/10 09:21:48;;;;;;;2.42;1.70;;;;;;;;;;5038773;28;20029;-70
2022/07/10 09:24:14;;;;;;;1.48;1.38;;;;;;;;;;5032158;28;20028;-70
2022/07/10 09:26:40;;;;;;;2.53;1.20;;;;;;;;;;5040529;28;20036;-72
2022/07/10 09:29:07;;;;;;;1.65;1.52;;;;;;;;;;5041300;28;20452;-69
2022/07/10 09:31:48;;;;;;;1.55;1.42;;;;;;;;;;5033677;28;20107;-70
2022/07/10 09:34:13;;;;;;;2.50;1.90;;;;;;;;;;5028004;28;20024;-69
2022/07/10 09:36:38;;;;;;;3.30;1.55;;;;;;;;;;5040689;28;20029;-69
2022/07/10 09:39:05;;;;;;;2.00;1.55;;;;;;;;;;5032364;28;20064;-70
2022/07/10 09:41:30;;;;;;;2.45;1.63;;;;;;;;;;5040583;28;20017;-71
2022/07/10 09:44:00;;;;;;;1.80;1.50;;;;;;;;;;5029571;28;20021;-69
2022/07/10 09:46:27;;;;;;;2.05;1.58;;;;;;;;;;5033907;28;20036;-71
2022/07/10 09:49:02;;;;;;;3.42;1.95;;;;;;;;;;5034587;28;20128;-67
2022/07/10 09:51:30;;;;;;;1.80;1.60;;;;;;;;;;5040667;28;20451;-69
2022/07/10 09:53:55;;;;;;;1.73;1.63;;;;;;;;;;5041013;28;20131;-69
2022/07/10 09:56:21;;;;;;;3.65;2.03;;;;;;;;;;5041269;28;20131;-72
2022/07/10 09:58:51;;;;;;;2.58;1.70;;;;;;;;;;5041774;28;20063;-69
2022/07/10 10:01:17;;;;;;;2.53;1.70;;;;;;;;;;5041221;28;20136;-67
2022/07/10 10:03:43;;;;;;;1.60;1.50;;;;;;;;;;5041021;28;20059;-72
2022/07/10 10:06:11;;;;;;;2.90;1.73;;;;;;;;;;5040197;28;20021;-70
2022/07/10 10:08:36;;;;;;;2.03;1.60;;;;;;;;;;5042139;28;20031;-70
2022/07/10 10:11:02;;;;;;;1.85;1.42;;;;;;;;;;5038137;28;20412;-71
2022/07/10 10:13:28;;;;;;;1.65;1.50;;;;;;;;;;5028093;28;20100;-73
2022/07/10 10:15:53;;;;;;;2.15;1.35;;;;;;;;;;5041841;28;20024;-71
2022/07/10 10:18:26;;;;;;;3.22;1.95;;;;;;;;;;5038795;28;20051;-71
2022/07/10 10:20:55;;;;;;;2.40;1.80;;;;;;;;;;5040553;28;20032;-71
2022/07/10 10:23:21;;;;;;;3.00;1.70;;;;;;;;;;5040208;28;20075;-74
2022/07/10 10:25:47;;;;;;;1.60;1.50;;;;;;;;;;5041584;28;20040;-70
2022/07/10 10:28:13;;;;;;;2.13;1.92;;;;;;;;;;5039455;28;20128;-71
2022/07/10 10:30:43;;;;;;;2.60;1.70;;;;;;;;;;5026436;28;21221;-70
2022/07/10 10:33:27;;;;;;;2.70;1.50;;;;;;;;;;5040781;28;20416;-68
2022/07/10 10:35:52;;;;;;;1.92;1.58;;;;;;;;;;5028605;28;20399;-67
2022/07/10 10:38:17;;;;;;;2.75;2.25;;;;;;;;;;5034115;28;20025;-69
2022/07/10 10:40:43;;;;;;;2.05;1.38;;;;;;;;;;5041892;28;20036;-69
2022/07/10 10:43:20;;;;;;;2.00;1.35;;;;;;;;;;5037506;28;20120;-68
2022/07/10 10:45:47;;;;;;;3.58;1.40;;;;;;;;;;5025815;28;20108;-70
2022/07/10 10:48:13;;;;;;;1.30;1.20;;;;;;;;;;5027118;28;20131;-71
2022/07/10 10:50:38;;;;;;;2.13;1.60;;;;;;;;;;5030076;28;20040;-70
2022/07/10 10:53:04;;;;;;;2.90;1.30;;;;;;;;;;5037807;28;20053;-70
2022/07/10 10:55:29;;;;;;;1.65;1.55;;;;;;;;;;5026005;28;20045;-73
2022/07/10 10:58:11;;;;;;;1.45;1.35;;;;;;;;;;5040343;28;20029;-70
2022/07/10 11:00:41;;;;;;;4.28;1.52;;;;;;;;;;5068347;28;20020;-70
2022/07/10 11:03:19;;;;;;;2.42;1.55;;;;;;;;;;5065679;28;20028;-71
2022/07/10 11:05:45;;;;;;;1.58;1.45;;;;;;;;;;5032334;28;20115;-70
2022/07/10 11:08:11;;;;;;;1.42;1.33;;;;;;;;;;5061577;28;20107;-70
2022/07/10 11:10:41;;;;;;;2.50;1.60;;;;;;;;;;5057526;28;20349;-71
2022/07/10 11:13:09;;;;;;;1.65;1.50;;;;;;;;;;5057274;28;20054;-71
2022/07/10 11:15:36;;;;;;;1.70;1.58;;;;;;;;;;5017895;28;20029;-71
2022/07/10 11:18:05;;;;;;;1.80;1.45;;;;;;;;;;5027968;28;20016;-71
2022/07/10 11:20:31;;;;;;;3.60;1.60;;;;;;;;;;5027699;28;20050;-71
2022/07/10 11:22:57;;;;;;;1.95;1.75;;;;;;;;;;5039742;28;20029;-70
2022/07/10 11:25:42;;;;;;;1.80;1.45;;;;;;;;;;5039465;28;20032;-69
2022/07/10 11:28:09;;;;;;;1.75;1.30;;;;;;;;;;5038476;28;20052;-73
2022/07/10 11:30:44;;;;;;;1.80;1.30;;;;;;;;;;5019809;28;20503;-71
2022/07/10 11:33:10;;;;;;;1.73;1.48;;;;;;;;;;5026914;28;20025;-72
2022/07/10 11:35:35;;;;;;;2.35;1.70;;;;;;;;;;5026612;28;20632;-72
2022/07/10 11:38:01;;;;;;;2.75;1.63;;;;;;;;;;5025729;28;20075;-69
2022/07/10 11:40:26;;;;;;;1.80;1.70;;;;;;;;;;5031103;28;20060;-68
2022/07/10 11:42:55;;;;;;;1.45;1.35;;;;;;;;;;5038490;28;20068;-69
2022/07/10 11:45:28;;;;;;;1.52;1.40;;;;;;;;;;5039144;28;21164;-72
2022/07/10 11:47:54;;;;;;;2.60;1.80;;;;;;;;;;5037430;28;20025;-68
2022/07/10 11:50:19;;;;;;;2.05;1.85;;;;;;;;;;5037429;28;20393;-70
2022/07/10 11:52:45;;;;;;;2.80;1.75;;;;;;;;;;5038089;28;20155;-69
2022/07/10 11:55:15;;;;;;;2.10;1.92;;;;;;;;;;5026344;28;20025;-71
2022/07/10 11:57:41;;;;;;;2.28;2.08;;;;;;;;;;5037456;28;20121;-69
2022/07/10 12:00:07;;;;;;;3.97;2.10;;;;;;;;;;5038677;28;20423;-68
2022/07/10 12:02:33;;;;;;;2.53;1.90;;;;;;;;;;5038695;28;20031;-69
2022/07/10 12:04:58;;;;;;;1.85;1.73;;;;;;;;;;5038940;28;20033;-70
2022/07/10 12:07:23;;;;;;;2.33;1.90;;;;;;;;;;5035917;28;20036;-70
2022/07/10 12:09:55;;;;;;;2.50;1.95;;;;;;;;;;5038418;28;20321;-69
2022/07/10 12:12:22;;;;;;;2.13;1.90;;;;;;;;;;5025991;28;20094;-71
2022/07/10 12:14:48;;;;;;;2.35;1.80;;;;;;;;;;5035341;28;20687;-71
2022/07/10 12:17:13;;;;;;;2.17;1.92;;;;;;;;;;5029250;28;20020;-70
2022/07/10 12:19:39;;;;;;;2.85;1.90;;;;;;;;;;5025850;28;20025;-70
2022/07/10 12:22:05;;;;;;;1.80;1.65;;;;;;;;;;5027097;28;20467;-70
2022/07/10 12:24:30;;;;;;;2.08;1.65;;;;;;;;;;5033859;28;20413;-69
2022/07/10 12:26:56;;;;;;;2.15;1.73;;;;;;;;;;5034005;28;20027;-72
2022/07/10 12:29:22;;;;;;;2.28;2.03;;;;;;;;;;5030039;28;20419;-71
2022/07/10 12:31:49;;;;;;;3.72;2.00;;;;;;;;;;5034867;28;20033;-69
2022/07/10 12:34:15;;;;;;;2.97;1.95;;;;;;;;;;5039897;28;20352;-69
2022/07/10 12:36:50;;;;;;;2.00;1.80;;;;;;;;;;5040535;28;20025;-68
2022/07/10 12:39:23;;;;;;;3.75;1.83;;;;;;;;;;5031165;28;20044;-71
2022/07/10 12:41:57;;;;;;;1.70;1.60;;;;;;;;;;5036207;28;20029;-69
2022/07/10 12:44:49;;;;;;;1.65;1.45;;;;;;;;;;5040504;28;20017;-69
2022/07/10 12:47:15;;;;;;;1.88;1.70;;;;;;;;;;5036555;28;20056;-71
2022/07/10 12:49:51;;;;;;;1.60;1.50;;;;;;;;;;5033929;28;21060;-69
2022/07/10 12:52:20;;;;;;;1.50;1.40;;;;;;;;;;5031594;28;20061;-68
2022/07/10 12:54:45;;;;;;;;;;;;;;;;;;5031884;28;20476;-69
2022/07/10 12:57:10;;;;;;;2.33;1.50;;;;;;;;;;5032484;28;19913;-72
2022/07/10 12:59:36;;;;;;;2.00;1.85;;;;;;;;;;5031609;28;20032;-69
2022/07/10 13:02:21;;;;;;;2.95;1.55;;;;;;;;;;5030945;28;20152;-73
2022/07/10 13:04:53;;;;;;;2.92;1.48;;;;;;;;;;5029708;28;20637;-70
2022/07/10 13:07:21;;;;;;;1.48;1.38;;;;;;;;;;5029165;28;20025;-71
2022/07/10 13:09:50;;;;;;;2.03;1.58;;;;;;;;;;5031066;28;20025;-71
2022/07/10 13:12:15;;;;;;;1.67;1.58;;;;;;;;;;5029698;28;20033;-69
2022/07/10 13:14:41;;;;;;;1.45;1.25;;;;;;;;;;5028864;28;20457;-71
2022/07/10 13:17:06;;;;;;;1.48;1.38;;;;;;;;;;5028861;28;20042;-70
2022/07/10 13:19:31;;;;;;;2.08;1.52;;;;;;;;;;5029681;28;20087;-69
2022/07/10 13:21:57;;;;;;;1.80;1.70;;;;;;;;;;5029703;28;20025;-70
2022/07/10 13:24:22;;;;;;;1.65;1.55;;;;;;;;;;5028788;28;20033;-72
2022/07/10 13:26:48;;;;;;;3.00;1.58;;;;;;;;;;5029718;28;20039;-71
2022/07/10 13:29:13;;;;;;;3.35;1.38;;;;;;;;;;5028942;28;20032;-73
2022/07/10 13:31:38;;;;;;;2.88;1.35;;;;;;;;;;5029397;28;20578;-75
2022/07/10 13:34:04;;;;;;;1.60;1.50;;;;;;;;;;5030944;28;20064;-75
2022/07/10 13:36:30;;;;;;;1.60;1.30;;;;;;;;;;5029246;28;20025;-76
2022/07/10 13:38:55;;;;;;;4.07;1.80;;;;;;;;;;5031203;28;20017;-75
2022/07/10 13:41:21;;;;;;;2.05;1.40;;;;;;;;;;5029658;28;20040;-81
2022/07/10 13:43:46;;;;;;;2.33;1.80;;;;;;;;;;5028975;28;20411;-74
2022/07/10 13:46:12;;;;;;;2.50;2.30;;;;;;;;;;5030646;28;20040;-80
2022/07/10 13:48:37;;;;;;;5.03;2.03;;;;;;;;;;5028815;28;20028;-74
2022/07/10 13:51:03;;;;;;;3.00;1.35;;;;;;;;;;5023022;28;20072;-76
2022/07/10 13:53:28;;;;;;;1.70;1.60;;;;;;;;;;5034558;28;20066;-74
2022/07/10 13:55:53;;;;;;;2.13;1.63;;;;;;;;;;5029547;28;20044;-81
2022/07/10 13:58:20;;;;;;;2.60;2.00;;;;;;;;;;5030178;28;20035;-76
2022/07/10 14:00:46;;;;;;;3.38;1.90;;;;;;;;;;5030017;28;20515;-73
2022/07/10 14:03:11;;;;;;;2.78;2.55;;;;;;;;;;5028450;28;20391;-79
2022/07/10 14:05:37;;;;;;;2.47;1.90;;;;;;;;;;5030844;28;20029;-79
2022/07/10 14:08:02;;;;;;;3.15;2.05;;;;;;;;;;5028451;28;20345;-77
2022/07/10 14:10:28;;;;;;;1.85;1.52;;;;;;;;;;5029489;28;20468;-78
2022/07/10 14:12:53;;;;;;;1.80;1.45;;;;;;;;;;5027137;28;20044;-81
2022/07/10 14:15:19;;;;;;;1.70;1.52;;;;;;;;;;5030209;28;20360;-77
2022/07/10 14:17:44;;;;;;;2.90;2.20;;;;;;;;;;5029518;28;20029;-76
2022/07/10 14:20:10;;;;;;;3.63;1.63;;;;;;;;;;5030276;28;20029;-71
2022/07/10 14:22:36;;;;;;;2.00;1.40;;;;;;;;;;5027949;28;20465;-77
2022/07/10 14:25:01;;;;;;;1.58;1.20;;;;;;;;;;5028997;28;20032;-74
2022/07/10 14:27:31;;;;;;;4.43;1.80;;;;;;;;;;5027595;28;20040;-79
2022/07/10 14:29:57;;;;;;;2.13;1.50;;;;;;;;;;5030003;28;20047;-77
2022/07/10 14:32:22;;;;;;;1.33;1.23;;;;;;;;;;5028178;28;20037;-73
2022/07/10 14:34:48;;;;;;;2.47;1.33;;;;;;;;;;5029287;28;21185;-77
2022/07/10 14:37:13;;;;;;;1.70;1.20;;;;;;;;;;5027645;28;20146;-78
2022/07/10 14:39:39;;;;;;;1.25;1.20;;;;;;;;;;5028248;28;20028;-79